Huvudsida
METAR-TAF:

METAR-TAF

Flygplatser :

Luni

Sarzana, Italien

latitud: 44-05N, longitud: 009-59E, höjd: 9 m

Aktuellt väderrapport

Denna rapport gjordes för 55 minuter sedan, klockan 13:55 UTC
Vind 3 kt från sydost
Temperatur 34°C
Fuktighet 47%
Tryck 1020 hPa
Sikt 10 km eller mer
Inga moln under 1 500 m eller inga cumulonimbus

METAR: LIQW 261355Z 13003KT CAVOK 34/21 Q1020 RMK SKC VIS MIN 9999 WIND THR18 18004KT BLU

Tid: 16:50 (14:50 UTC)

Väderprognos

Denna rapport gjordes för 3 timmar och 50 minuter sedan, klockan 11:00 UTC
Prognos gäller från 26 kl. 12 UTC till 26 kl. 21 UTC
Vind 5 kt varierande vindriktning
Sikt 10 km eller mer
Inga moln under 1 500 m eller inga cumulonimbus

TAF: LIQW 261100Z 2612/2621 VRB05KT CAVOK

Aktuella väderrapporter och prognoser från 4000 flygplatser (METAR- och TAF-rapporter).

De tillgängliga stationerna syns som gula och röda prickar på kartan.

För musen över prickarna för att se namnen på stationerna.

Klicka sedan för att få väderrapporter och prognoser.

För att ändra kartan: Klicka på de gröna knapparna med ett svart kors på för att zooma in; den gröna knappen med ett streck på för att zooma ut; eller på de gröna pilarna för angränsande kartor.


METAR-TAF: